Time;durP1;ratioP1;P1;durP2;ratioP2;P2;SDS_P1;SDS_P2;PMS_P1;PMS_P2;Temp;Humidity;BMP_temperature;BMP_pressure;BME280_temperature;BME280_humidity;BME280_pressure;Samples;Min_cycle;Max_cycle;Signal;HPM_P1;HPM_P2
2021/04/22 00:00:51;;;;;;;17.45;3.30;;;;;;;;;;1450671;41;20430;-83
2021/04/22 00:01:53;;;;;;;25.13;4.15;;;;;;;;;;1443904;41;20425;-82
2021/04/22 00:02:54;;;;;;;19.52;3.08;;;;;;;;;;1442224;41;20531;-82
2021/04/22 00:03:55;;;;;;;24.90;4.43;;;;;;;;;;1442299;41;20437;-83
2021/04/22 00:04:56;;;;;;;24.02;4.60;;;;;;;;;;1438825;41;20728;-83
2021/04/22 00:05:57;;;;;;;17.20;3.88;;;;;;;;;;1446043;41;20455;-83
2021/04/22 00:07:01;;;;;;;17.95;4.38;;;;;;;;;;1446135;41;20411;-83
2021/04/22 00:08:03;;;;;;;20.27;4.85;;;;;;;;;;1446033;41;20420;-83
2021/04/22 00:09:05;;;;;;;20.35;4.43;;;;;;;;;;1446181;41;20439;-83
2021/04/22 00:10:08;;;;;;;20.77;3.88;;;;;;;;;;1441214;41;20437;-82
2021/04/22 00:11:09;;;;;;;21.40;4.22;;;;;;;;;;1442161;41;20581;-83
2021/04/22 00:12:10;;;;;;;21.00;4.43;;;;;;;;;;1445930;41;20563;-83
2021/04/22 00:13:12;;;;;;;19.38;4.63;;;;;;;;;;1446036;41;20818;-81
2021/04/22 00:14:14;;;;;;;17.85;4.18;;;;;;;;;;1442215;41;20811;-82
2021/04/22 00:15:17;;;;;;;14.43;3.40;;;;;;;;;;1441928;41;20949;-82
2021/04/22 00:16:18;;;;;;;21.48;4.18;;;;;;;;;;1446267;41;20430;-82
2021/04/22 00:17:20;;;;;;;19.17;4.57;;;;;;;;;;1446612;41;20936;-82
2021/04/22 00:18:21;;;;;;;24.88;4.30;;;;;;;;;;1446197;41;20864;-81
2021/04/22 00:19:23;;;;;;;17.15;3.42;;;;;;;;;;1445755;41;20431;-82
2021/04/22 00:20:25;;;;;;;18.27;3.92;;;;;;;;;;1446316;41;20428;-83
2021/04/22 00:21:26;;;;;;;15.55;3.72;;;;;;;;;;1446404;41;20861;-82
2021/04/22 00:22:27;;;;;;;22.77;4.38;;;;;;;;;;1446612;41;20424;-82
2021/04/22 00:23:28;;;;;;;17.57;3.97;;;;;;;;;;1449011;40;20566;-83
2021/04/22 00:24:29;;;;;;;20.80;4.20;;;;;;;;;;1449876;41;20446;-82
2021/04/22 00:25:30;;;;;;;20.30;4.28;;;;;;;;;;1446558;41;20809;-82
2021/04/22 00:26:31;;;;;;;19.42;4.00;;;;;;;;;;1449609;41;20422;-82
2021/04/22 00:27:33;;;;;;;19.10;3.83;;;;;;;;;;1450026;41;20433;-82
2021/04/22 00:28:35;;;;;;;19.55;4.10;;;;;;;;;;1446337;41;20697;-82
2021/04/22 00:29:36;;;;;;;16.83;4.07;;;;;;;;;;1449777;41;20422;-83
2021/04/22 00:30:37;;;;;;;19.23;3.50;;;;;;;;;;1449964;41;20640;-82
2021/04/22 00:31:38;;;;;;;19.73;3.88;;;;;;;;;;1450077;41;20418;-83
2021/04/22 00:32:40;;;;;;;20.60;3.60;;;;;;;;;;1445814;41;20423;-83
2021/04/22 00:33:41;;;;;;;18.45;4.32;;;;;;;;;;1442190;41;20425;-83
2021/04/22 00:34:42;;;;;;;19.35;3.70;;;;;;;;;;1442225;41;20430;-83
2021/04/22 00:35:44;;;;;;;18.30;4.13;;;;;;;;;;1441332;41;20791;-82
2021/04/22 00:36:45;;;;;;;22.90;3.88;;;;;;;;;;1446476;41;20748;-82
2021/04/22 00:37:47;;;;;;;20.23;3.58;;;;;;;;;;1446802;41;20416;-82
2021/04/22 00:38:48;;;;;;;24.45;5.03;;;;;;;;;;1442571;41;20425;-84
2021/04/22 00:39:49;;;;;;;17.30;2.65;;;;;;;;;;1443772;41;20698;-83
2021/04/22 00:40:50;;;;;;;21.45;3.63;;;;;;;;;;1454705;41;20421;-82
2021/04/22 00:41:51;;;;;;;22.80;4.32;;;;;;;;;;1455432;41;20462;-83
2021/04/22 00:42:53;;;;;;;21.60;4.77;;;;;;;;;;1451772;41;20407;-83
2021/04/22 00:43:54;;;;;;;18.45;4.45;;;;;;;;;;1451814;41;20427;-81
2021/04/22 00:44:55;;;;;;;20.67;3.47;;;;;;;;;;1451558;41;20529;-82
2021/04/22 00:45:56;;;;;;;17.98;3.60;;;;;;;;;;1454826;41;20426;-83
2021/04/22 00:46:58;;;;;;;22.02;3.75;;;;;;;;;;1453446;41;20517;-82
2021/04/22 00:47:59;;;;;;;20.95;3.50;;;;;;;;;;1453165;41;20518;-83
2021/04/22 00:49:00;;;;;;;17.55;3.85;;;;;;;;;;1451955;41;20699;-82
2021/04/22 00:50:02;;;;;;;17.55;3.45;;;;;;;;;;1446731;41;20411;-83
2021/04/22 00:51:04;;;;;;;15.32;3.35;;;;;;;;;;1442925;41;20421;-84
2021/04/22 00:52:05;;;;;;;15.00;3.42;;;;;;;;;;1442575;41;20420;-83
2021/04/22 00:53:06;;;;;;;16.50;3.60;;;;;;;;;;1446446;41;20424;-83
2021/04/22 00:54:07;;;;;;;18.17;3.72;;;;;;;;;;1445712;41;20822;-82
2021/04/22 00:55:08;;;;;;;13.00;3.15;;;;;;;;;;1446074;41;20412;-83
2021/04/22 00:56:10;;;;;;;17.83;3.72;;;;;;;;;;1446679;41;20408;-83
2021/04/22 00:57:11;;;;;;;17.13;3.90;;;;;;;;;;1445982;41;20686;-82
2021/04/22 00:58:12;;;;;;;22.60;3.78;;;;;;;;;;1446251;41;20464;-82
2021/04/22 00:59:13;;;;;;;21.10;4.15;;;;;;;;;;1445807;41;20523;-82
2021/04/22 01:00:17;;;;;;;20.00;3.88;;;;;;;;;;1444260;41;21137;-82
2021/04/22 01:01:18;;;;;;;19.52;4.10;;;;;;;;;;1450393;41;20468;-82
2021/04/22 01:02:19;;;;;;;20.95;3.45;;;;;;;;;;1450549;41;20676;-82
2021/04/22 01:03:20;;;;;;;23.52;4.93;;;;;;;;;;1449610;41;20432;-82
2021/04/22 01:04:21;;;;;;;19.27;3.80;;;;;;;;;;1449867;41;20418;-82
2021/04/22 01:05:26;;;;;;;21.38;4.05;;;;;;;;;;1450275;41;20414;-82
2021/04/22 01:06:27;;;;;;;17.08;3.90;;;;;;;;;;1448327;41;20473;-82
2021/04/22 01:07:28;;;;;;;14.60;3.35;;;;;;;;;;1447455;41;20777;-81
2021/04/22 01:08:29;;;;;;;14.10;3.10;;;;;;;;;;1445602;41;20448;-82
2021/04/22 01:09:30;;;;;;;14.18;3.55;;;;;;;;;;1446089;41;20415;-82
2021/04/22 01:10:31;;;;;;;21.48;4.53;;;;;;;;;;1446079;41;20479;-82
2021/04/22 01:11:32;;;;;;;16.33;3.58;;;;;;;;;;1446505;41;20408;-83
2021/04/22 01:12:33;;;;;;;20.25;3.45;;;;;;;;;;1444793;41;20423;-82
2021/04/22 01:13:34;;;;;;;20.92;4.15;;;;;;;;;;1444192;41;20431;-82
2021/04/22 01:14:36;;;;;;;21.50;3.17;;;;;;;;;;1446149;41;20419;-81
2021/04/22 01:15:37;;;;;;;18.88;2.97;;;;;;;;;;1446699;41;20407;-82
2021/04/22 01:16:40;;;;;;;19.10;3.83;;;;;;;;;;1445920;41;20461;-82
2021/04/22 01:17:42;;;;;;;19.30;3.07;;;;;;;;;;1445959;41;20455;-82
2021/04/22 01:18:43;;;;;;;18.48;3.72;;;;;;;;;;1446330;41;20435;-83
2021/04/22 01:19:45;;;;;;;18.33;4.68;;;;;;;;;;1446417;41;20428;-82
2021/04/22 01:20:48;;;;;;;23.95;3.83;;;;;;;;;;1446689;41;20420;-82
2021/04/22 01:21:49;;;;;;;18.02;3.85;;;;;;;;;;1446567;41;20427;-82
2021/04/22 01:22:52;;;;;;;18.67;3.65;;;;;;;;;;1446521;41;20432;-83
2021/04/22 01:23:54;;;;;;;15.98;3.60;;;;;;;;;;1446593;41;20443;-82
2021/04/22 01:24:55;;;;;;;16.25;3.05;;;;;;;;;;1445705;41;20453;-82
2021/04/22 01:25:55;;;;;;;17.05;3.65;;;;;;;;;;1445624;41;20416;-82
2021/04/22 01:26:58;;;;;;;17.35;3.28;;;;;;;;;;1445781;41;20424;-82
2021/04/22 01:27:59;;;;;;;16.02;3.58;;;;;;;;;;1446775;41;20434;-82
2021/04/22 01:29:00;;;;;;;21.67;3.77;;;;;;;;;;1446690;41;20412;-83
2021/04/22 01:30:03;;;;;;;19.73;3.53;;;;;;;;;;1450314;41;20410;-83
2021/04/22 01:31:04;;;;;;;19.48;3.45;;;;;;;;;;1450023;41;20418;-82
2021/04/22 01:32:06;;;;;;;20.17;3.60;;;;;;;;;;1446325;41;21040;-83
2021/04/22 01:33:10;;;;;;;20.45;4.63;;;;;;;;;;1443071;41;21099;-83
2021/04/22 01:34:11;;;;;;;14.80;3.88;;;;;;;;;;1442721;41;20478;-82
2021/04/22 01:35:14;;;;;;;16.63;2.75;;;;;;;;;;1445836;41;20424;-83
2021/04/22 01:36:15;;;;;;;17.70;3.38;;;;;;;;;;1450902;41;20869;-83
2021/04/22 01:37:16;;;;;;;19.50;4.15;;;;;;;;;;1447046;41;20419;-83
2021/04/22 01:38:18;;;;;;;16.67;4.35;;;;;;;;;;1446085;41;20834;-84
2021/04/22 01:39:20;;;;;;;19.88;3.92;;;;;;;;;;1451135;41;20417;-83
2021/04/22 01:40:22;;;;;;;15.00;3.70;;;;;;;;;;1447294;41;20415;-83
2021/04/22 01:41:23;;;;;;;16.55;3.28;;;;;;;;;;1447889;41;20415;-82
2021/04/22 01:42:24;;;;;;;24.98;3.03;;;;;;;;;;1448579;41;20606;-83
2021/04/22 01:43:26;;;;;;;21.70;4.35;;;;;;;;;;1444606;41;20417;-84
2021/04/22 01:44:27;;;;;;;22.73;4.90;;;;;;;;;;1446538;41;20410;-83
2021/04/22 01:45:28;;;;;;;12.70;3.13;;;;;;;;;;1450461;41;20809;-83
2021/04/22 01:46:29;;;;;;;23.30;4.05;;;;;;;;;;1450954;41;20444;-83
2021/04/22 01:47:30;;;;;;;17.05;3.97;;;;;;;;;;1450815;41;20618;-83
2021/04/22 01:48:31;;;;;;;20.70;4.45;;;;;;;;;;1455493;41;20413;-83
2021/04/22 01:49:32;;;;;;;15.43;3.35;;;;;;;;;;1455224;41;20426;-83
2021/04/22 01:50:34;;;;;;;18.95;4.18;;;;;;;;;;1450540;41;20412;-83
2021/04/22 01:51:35;;;;;;;16.80;3.25;;;;;;;;;;1451687;41;20439;-83
2021/04/22 01:52:36;;;;;;;20.05;3.92;;;;;;;;;;1451283;41;20674;-82
2021/04/22 01:53:37;;;;;;;22.02;4.10;;;;;;;;;;1451000;41;20428;-83
2021/04/22 01:54:38;;;;;;;17.00;3.45;;;;;;;;;;1451250;41;20408;-84
2021/04/22 01:55:45;;;;;;;17.52;3.45;;;;;;;;;;1447956;41;20524;-83
2021/04/22 01:56:46;;;;;;;16.13;3.67;;;;;;;;;;1446331;41;20481;-82
2021/04/22 01:57:47;;;;;;;15.57;3.15;;;;;;;;;;1450674;41;20446;-83
2021/04/22 01:58:48;;;;;;;21.60;3.33;;;;;;;;;;1448576;41;20427;-82
2021/04/22 01:59:49;;;;;;;22.63;3.58;;;;;;;;;;1448425;41;20427;-82
2021/04/22 02:00:52;;;;;;;14.93;4.32;;;;;;;;;;1447195;41;20415;-82
2021/04/22 02:01:53;;;;;;;15.77;3.17;;;;;;;;;;1447958;41;20431;-82
2021/04/22 02:02:54;;;;;;;18.30;4.28;;;;;;;;;;1445334;41;20520;-82
2021/04/22 02:03:55;;;;;;;19.25;3.28;;;;;;;;;;1447416;41;20411;-83
2021/04/22 02:04:56;;;;;;;18.48;3.40;;;;;;;;;;1443313;41;20456;-83
2021/04/22 02:05:59;;;;;;;20.30;3.53;;;;;;;;;;1440225;41;20801;-82
2021/04/22 02:07:01;;;;;;;18.77;4.20;;;;;;;;;;1446366;41;20414;-82
2021/04/22 02:08:03;;;;;;;19.17;4.53;;;;;;;;;;1447153;41;20427;-82
2021/04/22 02:09:04;;;;;;;19.17;4.22;;;;;;;;;;1442457;41;20803;-83
2021/04/22 02:10:06;;;;;;;16.98;3.92;;;;;;;;;;1442121;41;20421;-82
2021/04/22 02:11:07;;;;;;;26.10;4.70;;;;;;;;;;1449847;41;20439;-82
2021/04/22 02:12:08;;;;;;;20.17;3.38;;;;;;;;;;1450178;41;20886;-82
2021/04/22 02:13:10;;;;;;;16.30;4.10;;;;;;;;;;1446732;41;20451;-82
2021/04/22 02:14:11;;;;;;;15.98;3.30;;;;;;;;;;1442422;41;20818;-82
2021/04/22 02:15:14;;;;;;;21.52;3.38;;;;;;;;;;1441041;41;20417;-82
2021/04/22 02:16:15;;;;;;;17.27;2.92;;;;;;;;;;1446317;41;20399;-82
2021/04/22 02:17:16;;;;;;;17.88;3.67;;;;;;;;;;1445466;41;20827;-82
2021/04/22 02:18:18;;;;;;;15.13;3.17;;;;;;;;;;1446118;41;20415;-83
2021/04/22 02:19:19;;;;;;;13.13;4.30;;;;;;;;;;1442652;41;20423;-81
2021/04/22 02:20:20;;;;;;;20.30;4.20;;;;;;;;;;1442713;41;20429;-82
2021/04/22 02:21:22;;;;;;;15.85;3.10;;;;;;;;;;1446108;41;20733;-82
2021/04/22 02:22:23;;;;;;;19.33;3.83;;;;;;;;;;1446478;41;20447;-82
2021/04/22 02:23:24;;;;;;;17.98;4.00;;;;;;;;;;1442266;41;20434;-82
2021/04/22 02:24:26;;;;;;;14.25;2.67;;;;;;;;;;1438343;41;20435;-82
2021/04/22 02:25:28;;;;;;;23.40;3.47;;;;;;;;;;1442489;41;20786;-82
2021/04/22 02:26:29;;;;;;;18.05;3.67;;;;;;;;;;1446339;41;20419;-82
2021/04/22 02:27:30;;;;;;;15.52;4.03;;;;;;;;;;1442727;41;20422;-82
2021/04/22 02:28:31;;;;;;;15.80;3.72;;;;;;;;;;1446759;41;20430;-82
2021/04/22 02:29:32;;;;;;;17.70;3.67;;;;;;;;;;1446287;41;20769;-82
2021/04/22 02:30:35;;;;;;;14.80;3.22;;;;;;;;;;1442534;41;20433;-83
2021/04/22 02:31:36;;;;;;;23.58;3.72;;;;;;;;;;1442350;41;20428;-82
2021/04/22 02:32:38;;;;;;;21.67;3.95;;;;;;;;;;1446475;41;20415;-82
2021/04/22 02:33:39;;;;;;;17.98;3.58;;;;;;;;;;1449631;41;20741;-82
2021/04/22 02:34:41;;;;;;;18.92;3.63;;;;;;;;;;1450374;41;20414;-82
2021/04/22 02:35:43;;;;;;;15.55;3.45;;;;;;;;;;1447415;41;20420;-83
2021/04/22 02:36:44;;;;;;;18.15;4.05;;;;;;;;;;1447493;41;20415;-82
2021/04/22 02:37:45;;;;;;;20.20;3.70;;;;;;;;;;1446751;41;20523;-82
2021/04/22 02:38:47;;;;;;;14.15;4.13;;;;;;;;;;1446501;41;20864;-82
2021/04/22 02:39:48;;;;;;;17.85;3.55;;;;;;;;;;1445641;41;20487;-82
2021/04/22 02:40:50;;;;;;;18.92;4.15;;;;;;;;;;1450441;41;20394;-82
2021/04/22 02:41:51;;;;;;;17.55;4.47;;;;;;;;;;1449950;41;20753;-82
2021/04/22 02:42:57;;;;;;;20.33;3.67;;;;;;;;;;1447582;41;20431;-82
2021/04/22 02:43:58;;;;;;;13.50;3.83;;;;;;;;;;1446091;41;20424;-82
2021/04/22 02:44:59;;;;;;;15.43;3.88;;;;;;;;;;1446381;41;20442;-83
2021/04/22 02:46:00;;;;;;;16.48;3.53;;;;;;;;;;1446543;41;20659;-82
2021/04/22 02:47:02;;;;;;;16.95;3.60;;;;;;;;;;1446816;41;20423;-83
2021/04/22 02:48:03;;;;;;;18.48;4.03;;;;;;;;;;1446165;41;20479;-82
2021/04/22 02:49:04;;;;;;;17.05;2.67;;;;;;;;;;1445547;41;20822;-82
2021/04/22 02:50:08;;;;;;;16.25;4.10;;;;;;;;;;1446924;41;20427;-82
2021/04/22 02:51:09;;;;;;;16.83;4.13;;;;;;;;;;1446675;41;20474;-82
2021/04/22 02:52:13;;;;;;;16.65;3.83;;;;;;;;;;1445984;41;20443;-83
2021/04/22 02:53:14;;;;;;;20.13;3.88;;;;;;;;;;1446388;41;20440;-82
2021/04/22 02:54:15;;;;;;;17.98;3.30;;;;;;;;;;1447006;41;20443;-82
2021/04/22 02:55:16;;;;;;;20.10;4.22;;;;;;;;;;1446631;41;20519;-81
2021/04/22 02:56:37;;;;;;;12.40;3.40;;;;;;;;;;1449595;41;21049;-83
2021/04/22 02:57:39;;;;;;;17.65;4.22;;;;;;;;;;1448733;41;20833;-82
2021/04/22 02:58:40;;;;;;;13.10;3.22;;;;;;;;;;1446068;41;20428;-82
2021/04/22 02:59:42;;;;;;;21.40;4.05;;;;;;;;;;1446747;41;20431;-83
2021/04/22 03:00:44;;;;;;;18.73;3.80;;;;;;;;;;1446839;41;20424;-83
2021/04/22 03:01:46;;;;;;;17.92;3.67;;;;;;;;;;1447025;41;20419;-82
2021/04/22 03:02:47;;;;;;;19.40;3.20;;;;;;;;;;1443803;41;20659;-82
2021/04/22 03:03:48;;;;;;;17.33;3.88;;;;;;;;;;1446386;41;20451;-83
2021/04/22 03:04:49;;;;;;;11.63;4.20;;;;;;;;;;1454231;40;20436;-83
2021/04/22 03:05:51;;;;;;;16.75;3.33;;;;;;;;;;1455527;41;20799;-82
2021/04/22 03:06:52;;;;;;;16.58;3.72;;;;;;;;;;1447835;41;20441;-84
2021/04/22 03:07:53;;;;;;;14.93;3.97;;;;;;;;;;1451771;40;20424;-84
2021/04/22 03:08:54;;;;;;;15.23;3.35;;;;;;;;;;1455673;40;20441;-83
2021/04/22 03:09:55;;;;;;;19.52;4.00;;;;;;;;;;1447780;41;20442;-84
2021/04/22 03:10:56;;;;;;;17.02;3.33;;;;;;;;;;1444236;41;20446;-82
2021/04/22 03:11:57;;;;;;;15.50;3.83;;;;;;;;;;1448148;41;20437;-83
2021/04/22 03:12:58;;;;;;;18.70;4.30;;;;;;;;;;1451064;41;20447;-83
2021/04/22 03:13:59;;;;;;;19.10;3.40;;;;;;;;;;1447700;41;20419;-83
2021/04/22 03:15:00;;;;;;;16.52;3.90;;;;;;;;;;1446639;41;20423;-83
2021/04/22 03:16:01;;;;;;;16.92;3.67;;;;;;;;;;1447339;41;20455;-83
2021/04/22 03:17:02;;;;;;;17.40;3.53;;;;;;;;;;1446722;41;20418;-82
2021/04/22 03:18:03;;;;;;;19.75;3.72;;;;;;;;;;1445205;41;20772;-82
2021/04/22 03:19:04;;;;;;;22.15;4.53;;;;;;;;;;1442122;41;20964;-83
2021/04/22 03:20:06;;;;;;;20.48;4.15;;;;;;;;;;1446386;41;20415;-82
2021/04/22 03:21:07;;;;;;;11.32;2.58;;;;;;;;;;1445895;41;20424;-82
2021/04/22 03:22:08;;;;;;;20.63;3.85;;;;;;;;;;1442343;41;20421;-83
2021/04/22 03:23:10;;;;;;;10.95;2.10;;;;;;;;;;1445899;41;20423;-82
2021/04/22 03:24:11;;;;;;;19.38;3.83;;;;;;;;;;1442619;41;20429;-82
2021/04/22 03:25:13;;;;;;;17.35;3.75;;;;;;;;;;1446854;41;20416;-82
2021/04/22 03:26:14;;;;;;;19.90;3.95;;;;;;;;;;1442605;41;20410;-82
2021/04/22 03:27:15;;;;;;;15.82;3.47;;;;;;;;;;1442411;41;20757;-83
2021/04/22 03:28:16;;;;;;;14.77;4.07;;;;;;;;;;1446878;41;20430;-83
2021/04/22 03:29:17;;;;;;;17.35;3.45;;;;;;;;;;1446716;41;20424;-82
2021/04/22 03:30:19;;;;;;;18.73;3.83;;;;;;;;;;1445808;41;20450;-82
2021/04/22 03:31:20;;;;;;;18.30;3.20;;;;;;;;;;1446874;41;20420;-82
2021/04/22 03:32:21;;;;;;;20.98;3.90;;;;;;;;;;1446261;41;20427;-82
2021/04/22 03:33:22;;;;;;;20.85;4.07;;;;;;;;;;1445988;41;20454;-83
2021/04/22 03:34:23;;;;;;;15.55;3.75;;;;;;;;;;1446309;41;20427;-82
2021/04/22 03:35:24;;;;;;;16.88;3.40;;;;;;;;;;1446919;41;20427;-83
2021/04/22 03:36:26;;;;;;;14.25;3.83;;;;;;;;;;1446145;41;20432;-83
2021/04/22 03:37:27;;;;;;;12.88;3.10;;;;;;;;;;1446773;41;20443;-83
2021/04/22 03:38:28;;;;;;;17.17;3.70;;;;;;;;;;1450972;40;20408;-82
2021/04/22 03:39:29;;;;;;;20.95;4.15;;;;;;;;;;1446875;41;20498;-83
2021/04/22 03:40:30;;;;;;;17.52;3.78;;;;;;;;;;1447460;41;20424;-82
2021/04/22 03:41:31;;;;;;;14.25;2.88;;;;;;;;;;1446528;41;20435;-82
2021/04/22 03:42:36;;;;;;;18.08;3.42;;;;;;;;;;1445099;41;20426;-81
2021/04/22 03:43:37;;;;;;;22.35;3.60;;;;;;;;;;1445848;41;20415;-82
2021/04/22 03:44:38;;;;;;;13.00;3.40;;;;;;;;;;1446499;41;20423;-81
2021/04/22 03:45:39;;;;;;;18.90;3.88;;;;;;;;;;1450000;41;20414;-81
2021/04/22 03:46:40;;;;;;;14.48;2.72;;;;;;;;;;1449923;41;20836;-82
2021/04/22 03:47:42;;;;;;;14.80;3.00;;;;;;;;;;1449908;41;20819;-82
2021/04/22 03:48:43;;;;;;;13.23;3.35;;;;;;;;;;1449398;41;20693;-82
2021/04/22 03:49:45;;;;;;;15.57;2.95;;;;;;;;;;1450205;41;20414;-82
2021/04/22 03:50:46;;;;;;;18.65;3.40;;;;;;;;;;1449859;41;20433;-82
2021/04/22 03:51:47;;;;;;;15.00;2.88;;;;;;;;;;1446646;41;20779;-81
2021/04/22 03:52:48;;;;;;;16.58;2.78;;;;;;;;;;1446586;41;20706;-82
2021/04/22 03:53:49;;;;;;;15.00;3.67;;;;;;;;;;1446228;41;20447;-83
2021/04/22 03:54:50;;;;;;;18.85;3.38;;;;;;;;;;1449091;41;20418;-81
2021/04/22 03:55:53;;;;;;;18.65;3.67;;;;;;;;;;1447162;41;20428;-81
2021/04/22 03:56:54;;;;;;;21.90;4.45;;;;;;;;;;1442671;41;20444;-81
2021/04/22 03:57:55;;;;;;;16.90;3.60;;;;;;;;;;1450181;41;20437;-82
2021/04/22 03:58:56;;;;;;;15.45;3.58;;;;;;;;;;1450320;41;20430;-82
2021/04/22 03:59:57;;;;;;;14.68;3.55;;;;;;;;;;1446528;41;20813;-82
2021/04/22 04:00:59;;;;;;;20.70;4.15;;;;;;;;;;1445256;41;21326;-82
2021/04/22 04:02:00;;;;;;;18.63;3.72;;;;;;;;;;1446539;41;20431;-82
2021/04/22 04:03:01;;;;;;;15.63;3.80;;;;;;;;;;1451050;40;20425;-83
2021/04/22 04:04:02;;;;;;;14.30;3.47;;;;;;;;;;1445884;41;20427;-81
2021/04/22 04:05:04;;;;;;;16.17;3.97;;;;;;;;;;1442150;41;20418;-82
2021/04/22 04:06:07;;;;;;;15.93;3.88;;;;;;;;;;1442779;41;20486;-82
2021/04/22 04:07:08;;;;;;;19.08;4.18;;;;;;;;;;1441659;41;20417;-82
2021/04/22 04:08:09;;;;;;;16.85;4.18;;;;;;;;;;1450713;41;20433;-82
2021/04/22 04:09:10;;;;;;;16.70;4.28;;;;;;;;;;1450538;41;20410;-82
2021/04/22 04:10:12;;;;;;;17.65;4.20;;;;;;;;;;1450996;41;20538;-82
2021/04/22 04:11:14;;;;;;;19.05;3.85;;;;;;;;;;1450570;41;20406;-82
2021/04/22 04:12:16;;;;;;;16.90;4.00;;;;;;;;;;1447600;41;20434;-82
2021/04/22 04:13:17;;;;;;;15.50;3.13;;;;;;;;;;1450942;41;20429;-82
2021/04/22 04:14:18;;;;;;;16.65;4.05;;;;;;;;;;1450693;40;20831;-82
2021/04/22 04:15:19;;;;;;;18.95;4.05;;;;;;;;;;1447076;41;20419;-82
2021/04/22 04:16:20;;;;;;;19.77;3.22;;;;;;;;;;1448121;41;20491;-83
2021/04/22 04:17:21;;;;;;;13.37;3.63;;;;;;;;;;1447965;41;20467;-82
2021/04/22 04:18:23;;;;;;;18.15;4.82;;;;;;;;;;1448355;41;20435;-82
2021/04/22 04:19:24;;;;;;;17.67;2.72;;;;;;;;;;1451712;41;20478;-82
2021/04/22 04:20:25;;;;;;;13.52;3.80;;;;;;;;;;1452446;41;20424;-82
2021/04/22 04:21:26;;;;;;;17.55;3.72;;;;;;;;;;1452445;41;20425;-82
2021/04/22 04:22:27;;;;;;;14.73;3.30;;;;;;;;;;1444948;41;20441;-81
2021/04/22 04:23:28;;;;;;;16.75;3.10;;;;;;;;;;1443659;41;20431;-82
2021/04/22 04:24:29;;;;;;;23.40;4.40;;;;;;;;;;1451654;41;20412;-82
2021/04/22 04:25:30;;;;;;;18.42;3.78;;;;;;;;;;1451197;41;20471;-82
2021/04/22 04:26:31;;;;;;;19.95;3.47;;;;;;;;;;1449634;41;20774;-82
2021/04/22 04:27:32;;;;;;;14.88;3.40;;;;;;;;;;1449001;41;20581;-82
2021/04/22 04:28:33;;;;;;;16.90;3.15;;;;;;;;;;1451376;40;20415;-82
2021/04/22 04:29:34;;;;;;;16.65;3.10;;;;;;;;;;1452236;41;20400;-82
2021/04/22 04:30:35;;;;;;;17.60;3.58;;;;;;;;;;1451958;41;20545;-82
2021/04/22 04:31:36;;;;;;;18.85;3.47;;;;;;;;;;1451356;41;20403;-81
2021/04/22 04:32:38;;;;;;;24.55;4.05;;;;;;;;;;1448969;41;20483;-82
2021/04/22 04:33:39;;;;;;;9.35;2.95;;;;;;;;;;1455019;41;20405;-81
2021/04/22 04:34:40;;;;;;;23.17;4.28;;;;;;;;;;1452301;41;20427;-81
2021/04/22 04:35:41;;;;;;;21.03;4.37;;;;;;;;;;1448479;41;20428;-82
2021/04/22 04:36:45;;;;;;;18.33;3.13;;;;;;;;;;1450650;40;20420;-81
2021/04/22 04:37:46;;;;;;;16.75;4.07;;;;;;;;;;1450861;41;20443;-81
2021/04/22 04:38:47;;;;;;;20.33;4.75;;;;;;;;;;1450378;41;20420;-81
2021/04/22 04:39:49;;;;;;;23.10;4.63;;;;;;;;;;1452944;41;20466;-82
2021/04/22 04:40:50;;;;;;;20.80;4.45;;;;;;;;;;1455546;41;20562;-82
2021/04/22 04:41:51;;;;;;;19.38;4.20;;;;;;;;;;1452222;40;20416;-82
2021/04/22 04:42:54;;;;;;;17.95;4.05;;;;;;;;;;1451899;40;20427;-82
2021/04/22 04:43:55;;;;;;;20.70;4.20;;;;;;;;;;1450664;41;20745;-81
2021/04/22 04:44:56;;;;;;;13.57;3.45;;;;;;;;;;1445816;41;20406;-81
2021/04/22 04:45:57;;;;;;;20.85;4.82;;;;;;;;;;1446668;41;20413;-81
2021/04/22 04:46:58;;;;;;;18.98;3.30;;;;;;;;;;1448921;41;20435;-82
2021/04/22 04:47:59;;;;;;;16.55;4.22;;;;;;;;;;1450836;41;20429;-82
2021/04/22 04:49:00;;;;;;;18.27;3.90;;;;;;;;;;1449986;41;20422;-82
2021/04/22 04:50:02;;;;;;;13.20;3.97;;;;;;;;;;1447198;41;20427;-82
2021/04/22 04:51:03;;;;;;;22.45;4.82;;;;;;;;;;1447009;41;20420;-82
2021/04/22 04:52:04;;;;;;;18.48;4.15;;;;;;;;;;1446066;41;20686;-82
2021/04/22 04:53:05;;;;;;;17.93;4.97;;;;;;;;;;1442641;41;20437;-82
2021/04/22 04:54:06;;;;;;;12.77;3.53;;;;;;;;;;1445954;41;20446;-82
2021/04/22 04:55:07;;;;;;;22.88;4.25;;;;;;;;;;1445801;41;20484;-82
2021/04/22 04:56:08;;;;;;;13.23;4.07;;;;;;;;;;1438235;41;20410;-82
2021/04/22 04:57:13;;;;;;;16.48;4.18;;;;;;;;;;1442512;40;20510;-81
2021/04/22 04:58:14;;;;;;;18.58;3.67;;;;;;;;;;1453667;40;20416;-83
2021/04/22 04:59:16;;;;;;;22.67;5.13;;;;;;;;;;1446324;41;20403;-82
2021/04/22 05:00:18;;;;;;;18.83;3.85;;;;;;;;;;1446845;41;20431;-82
2021/04/22 05:01:19;;;;;;;22.02;4.32;;;;;;;;;;1447802;41;20423;-83
2021/04/22 05:02:22;;;;;;;14.30;4.68;;;;;;;;;;1454202;40;20743;-82
2021/04/22 05:03:23;;;;;;;20.15;4.05;;;;;;;;;;1449445;41;20421;-82
2021/04/22 05:04:24;;;;;;;20.00;5.00;;;;;;;;;;1447032;41;20667;-82
2021/04/22 05:05:25;;;;;;;17.50;4.18;;;;;;;;;;1446197;41;20407;-82
2021/04/22 05:06:26;;;;;;;22.60;5.37;;;;;;;;;;1446816;41;20424;-82
2021/04/22 05:07:27;;;;;;;23.48;4.95;;;;;;;;;;1447208;41;21187;-83
2021/04/22 05:08:28;;;;;;;14.40;4.50;;;;;;;;;;1446817;41;20431;-82
2021/04/22 05:09:29;;;;;;;15.73;3.63;;;;;;;;;;1445867;41;20496;-83
2021/04/22 05:10:30;;;;;;;17.15;4.05;;;;;;;;;;1447348;41;20424;-82
2021/04/22 05:11:31;;;;;;;20.35;4.03;;;;;;;;;;1438250;41;20487;-82
2021/04/22 05:12:32;;;;;;;22.95;4.15;;;;;;;;;;1438071;41;20483;-83
2021/04/22 05:13:33;;;;;;;22.80;4.80;;;;;;;;;;1442019;41;20433;-83
2021/04/22 05:14:35;;;;;;;23.25;4.60;;;;;;;;;;1438395;41;20479;-82
2021/04/22 05:15:36;;;;;;;20.75;4.28;;;;;;;;;;1441910;41;20410;-82
2021/04/22 05:16:37;;;;;;;11.88;4.07;;;;;;;;;;1445928;41;20918;-83
2021/04/22 05:17:38;;;;;;;15.05;3.83;;;;;;;;;;1446599;41;20408;-83
2021/04/22 05:18:39;;;;;;;14.30;3.38;;;;;;;;;;1446063;41;20443;-82
2021/04/22 05:19:41;;;;;;;16.55;4.30;;;;;;;;;;1441832;41;20425;-83
2021/04/22 05:20:42;;;;;;;15.25;4.20;;;;;;;;;;1441944;41;20418;-82
2021/04/22 05:21:46;;;;;;;18.55;4.25;;;;;;;;;;1445944;41;20833;-83
2021/04/22 05:22:47;;;;;;;21.42;4.10;;;;;;;;;;1445070;41;20424;-83
2021/04/22 05:23:48;;;;;;;17.85;5.70;;;;;;;;;;1445949;41;20427;-82
2021/04/22 05:24:50;;;;;;;19.63;4.55;;;;;;;;;;1446085;41;20863;-82
2021/04/22 05:25:54;;;;;;;19.05;3.80;;;;;;;;;;1445609;41;20438;-83
2021/04/22 05:26:55;;;;;;;14.65;3.53;;;;;;;;;;1445394;41;20420;-82
2021/04/22 05:27:56;;;;;;;16.60;3.78;;;;;;;;;;1446693;41;20547;-84
2021/04/22 05:28:57;;;;;;;19.02;3.90;;;;;;;;;;1450137;41;20426;-83
2021/04/22 05:29:59;;;;;;;20.60;4.25;;;;;;;;;;1448161;41;20519;-84
2021/04/22 05:31:00;;;;;;;16.95;3.80;;;;;;;;;;1450506;41;20438;-84
2021/04/22 05:32:01;;;;;;;19.38;4.10;;;;;;;;;;1455365;41;20409;-84
2021/04/22 05:33:02;;;;;;;14.43;3.40;;;;;;;;;;1444750;41;20420;-84
2021/04/22 05:34:05;;;;;;;16.80;4.00;;;;;;;;;;1446938;41;20441;-84
2021/04/22 05:35:06;;;;;;;19.45;3.65;;;;;;;;;;1450100;41;20414;-84
2021/04/22 05:36:24;;;;;;;18.45;3.60;;;;;;;;;;1445922;41;20385;-83
2021/04/22 05:37:25;;;;;;;23.50;4.38;;;;;;;;;;1447041;41;20417;-84
2021/04/22 05:38:29;;;;;;;22.88;4.30;;;;;;;;;;1449281;41;20428;-84
2021/04/22 05:39:32;;;;;;;15.80;3.80;;;;;;;;;;1449807;41;20679;-84
2021/04/22 05:40:33;;;;;;;18.38;4.03;;;;;;;;;;1452398;41;20469;-83
2021/04/22 05:41:34;;;;;;;16.83;3.85;;;;;;;;;;1451040;41;20425;-84
2021/04/22 05:42:35;;;;;;;15.57;3.83;;;;;;;;;;1447494;41;20404;-84
2021/04/22 05:43:36;;;;;;;15.73;3.63;;;;;;;;;;1446336;41;20420;-83
2021/04/22 05:44:37;;;;;;;18.67;3.27;;;;;;;;;;1446461;41;20506;-85
2021/04/22 05:45:39;;;;;;;20.60;3.33;;;;;;;;;;1446808;41;20805;-85
2021/04/22 05:46:40;;;;;;;20.17;3.10;;;;;;;;;;1446792;41;20561;-84
2021/04/22 05:47:43;;;;;;;23.35;3.75;;;;;;;;;;1448739;41;20423;-84
2021/04/22 05:48:45;;;;;;;19.55;3.47;;;;;;;;;;1450406;41;20777;-84
2021/04/22 05:49:51;;;;;;;20.50;2.88;;;;;;;;;;1449912;41;20548;-84
2021/04/22 05:50:52;;;;;;;15.07;3.90;;;;;;;;;;1450528;41;20427;-85
2021/04/22 05:51:54;;;;;;;15.70;3.00;;;;;;;;;;1450031;41;20692;-84
2021/04/22 05:52:58;;;;;;;14.05;2.97;;;;;;;;;;1447190;41;20464;-83
2021/04/22 05:53:59;;;;;;;14.82;2.92;;;;;;;;;;1446988;41;20435;-84
2021/04/22 05:55:00;;;;;;;21.00;2.90;;;;;;;;;;1446644;41;20919;-85
2021/04/22 05:56:01;;;;;;;15.80;3.25;;;;;;;;;;1450874;41;20844;-85
2021/04/22 05:57:02;;;;;;;16.40;3.30;;;;;;;;;;1447109;41;20431;-84
2021/04/22 05:58:04;;;;;;;15.37;2.97;;;;;;;;;;1444249;41;20444;-84
2021/04/22 05:59:05;;;;;;;18.17;2.70;;;;;;;;;;1443075;41;20460;-84
2021/04/22 06:00:09;;;;;;;12.73;2.85;;;;;;;;;;1438587;41;20519;-84
2021/04/22 06:01:10;;;;;;;21.77;3.20;;;;;;;;;;1442846;41;20755;-85
2021/04/22 06:02:12;;;;;;;13.77;3.05;;;;;;;;;;1438973;41;20534;-84
2021/04/22 06:03:13;;;;;;;15.05;3.25;;;;;;;;;;1443349;41;20429;-84
2021/04/22 06:04:14;;;;;;;16.33;3.22;;;;;;;;;;1443122;41;20418;-85